Time;durP1;ratioP1;P1;durP2;ratioP2;P2;SDS_P1;SDS_P2;PMS_P1;PMS_P2;Temp;Humidity;BMP_temperature;BMP_pressure;BME280_temperature;BME280_humidity;BME280_pressure;Samples;Min_cycle;Max_cycle;Signal;HPM_P1;HPM_P2
2023/12/13 00:00:11;;;;;;;4.03;1.00;;;;;;;8.06;100.00;99318.47;5027246;28;20168;-68
2023/12/13 00:02:36;;;;;;;3.13;0.95;;;;;;;8.02;100.00;99309.97;5025591;28;20405;-67
2023/12/13 00:05:02;;;;;;;2.75;1.00;;;;;;;8.02;100.00;99306.53;5023630;28;20032;-68
2023/12/13 00:07:28;;;;;;;1.15;0.70;;;;;;;8.00;100.00;99314.31;5055061;28;20675;-68
2023/12/13 00:09:53;;;;;;;3.63;1.65;;;;;;;8.01;100.00;99299.72;5004988;28;20030;-68
2023/12/13 00:12:19;;;;;;;4.07;1.13;;;;;;;8.00;100.00;99298.00;5006654;28;20034;-68
2023/12/13 00:14:44;;;;;;;2.28;0.98;;;;;;;8.03;100.00;99300.50;5005004;28;20128;-68
2023/12/13 00:17:14;;;;;;;4.32;1.98;;;;;;;8.04;100.00;99299.63;5024002;28;20033;-68
2023/12/13 00:19:40;;;;;;;4.30;1.05;;;;;;;8.04;100.00;99298.78;5054582;28;20025;-68
2023/12/13 00:22:08;;;;;;;2.92;1.00;;;;;;;8.00;100.00;99301.44;5022485;28;20033;-68
2023/12/13 00:24:33;;;;;;;2.33;1.13;;;;;;;7.96;100.00;99296.38;5023070;28;20041;-69
2023/12/13 00:26:59;;;;;;;3.03;1.25;;;;;;;7.87;100.00;99296.56;5021162;28;20034;-69
2023/12/13 00:29:24;;;;;;;1.95;1.00;;;;;;;7.78;100.00;99294.19;5023941;28;20057;-69
2023/12/13 00:31:52;;;;;;;3.47;0.90;;;;;;;7.71;100.00;99296.06;5026023;28;20112;-67
2023/12/13 00:34:18;;;;;;;5.68;1.00;;;;;;;7.72;100.00;99299.44;5024992;28;20038;-69
2023/12/13 00:36:43;;;;;;;1.10;0.82;;;;;;;7.70;100.00;99294.34;5059142;28;20070;-68
2023/12/13 00:39:09;;;;;;;2.30;0.80;;;;;;;7.73;100.00;99289.13;5027708;28;20116;-69
2023/12/13 00:41:34;;;;;;;2.00;0.80;;;;;;;7.79;100.00;99288.16;5034497;28;20520;-68
2023/12/13 00:44:01;;;;;;;2.15;0.70;;;;;;;7.83;100.00;99288.06;5028962;28;20507;-69
2023/12/13 00:46:26;;;;;;;4.65;1.02;;;;;;;7.83;100.00;99297.53;5027284;28;20036;-67
2023/12/13 00:48:52;;;;;;;2.53;0.95;;;;;;;7.80;100.00;99288.13;5031052;28;20033;-68
2023/12/13 00:51:22;;;;;;;3.10;0.70;;;;;;;7.81;100.00;99288.97;5060599;28;20045;-68
2023/12/13 00:53:49;;;;;;;1.73;0.77;;;;;;;7.88;100.00;99295.69;5061341;28;20116;-68
2023/12/13 00:56:15;;;;;;;3.28;1.02;;;;;;;7.92;100.00;99284.47;5026932;28;20535;-68
2023/12/13 00:58:42;;;;;;;3.50;0.90;;;;;;;7.90;100.00;99289.63;5060577;28;20120;-68
2023/12/13 01:01:08;;;;;;;3.50;0.88;;;;;;;7.92;100.00;99289.63;5028725;28;20049;-69
2023/12/13 01:03:34;;;;;;;1.08;0.75;;;;;;;7.91;100.00;99288.75;5028801;28;20037;-69
2023/12/13 01:05:59;;;;;;;4.85;0.82;;;;;;;7.89;100.00;99289.69;5026018;28;20046;-68
2023/12/13 01:08:25;;;;;;;2.70;0.73;;;;;;;7.85;100.00;99283.75;5021462;28;20038;-68
2023/12/13 01:10:51;;;;;;;4.75;1.00;;;;;;;7.83;100.00;99290.63;5027460;28;20144;-68
2023/12/13 01:13:17;;;;;;;2.50;0.80;;;;;;;7.84;100.00;99296.63;5027368;28;20045;-68
2023/12/13 01:15:42;;;;;;;3.60;1.60;;;;;;;7.85;100.00;99290.59;5060281;28;20398;-68
2023/12/13 01:18:10;;;;;;;2.10;0.88;;;;;;;7.90;100.00;99294.78;5024389;28;20416;-68
2023/12/13 01:20:36;;;;;;;1.70;0.93;;;;;;;7.93;100.00;99287.00;5052562;28;20084;-68
2023/12/13 01:23:01;;;;;;;3.88;0.68;;;;;;;7.97;100.00;99291.22;5022913;28;20587;-68
2023/12/13 01:25:27;;;;;;;4.60;1.27;;;;;;;7.99;100.00;99286.88;5042832;28;20042;-68
2023/12/13 01:27:57;;;;;;;3.35;0.77;;;;;;;8.02;100.00;99293.66;5027189;28;20057;-69
2023/12/13 01:30:22;;;;;;;3.28;1.02;;;;;;;8.04;100.00;99288.50;5023284;28;20042;-67
2023/12/13 01:32:48;;;;;;;7.18;1.48;;;;;;;8.05;100.00;99291.03;5039910;28;20026;-68
2023/12/13 01:35:13;;;;;;;2.75;0.80;;;;;;;8.09;100.00;99294.38;5059804;28;20048;-69
2023/12/13 01:37:39;;;;;;;2.38;0.80;;;;;;;8.15;100.00;99292.53;4993524;28;20049;-68
2023/12/13 01:40:05;;;;;;;3.72;0.90;;;;;;;8.20;100.00;99292.41;5025832;28;20042;-68
2023/12/13 01:42:30;;;;;;;1.88;0.88;;;;;;;8.25;100.00;99295.75;5057082;28;20092;-69
2023/12/13 01:44:56;;;;;;;3.80;1.08;;;;;;;8.28;100.00;99293.94;5027106;28;20164;-68
2023/12/13 01:47:21;;;;;;;3.47;0.70;;;;;;;8.30;100.00;99301.63;5028077;28;20056;-68
2023/12/13 01:49:47;;;;;;;4.95;1.20;;;;;;;8.31;100.00;99296.44;5056850;28;20072;-69
2023/12/13 01:52:16;;;;;;;2.67;0.90;;;;;;;8.32;100.00;99295.56;5027619;28;20407;-69
2023/12/13 01:54:42;;;;;;;2.33;0.70;;;;;;;8.32;100.00;99297.28;5026876;28;20080;-69
2023/12/13 01:57:09;;;;;;;4.68;0.93;;;;;;;8.33;100.00;99294.69;5027550;28;20038;-69
2023/12/13 01:59:37;;;;;;;1.92;1.00;;;;;;;8.34;100.00;99295.50;5027890;28;20087;-68
2023/12/13 02:02:02;;;;;;;2.45;0.70;;;;;;;8.33;100.00;99294.69;5027548;28;20025;-68
2023/12/13 02:04:28;;;;;;;5.55;1.10;;;;;;;8.35;100.00;99284.34;5041734;28;20030;-68
2023/12/13 02:06:54;;;;;;;1.55;0.90;;;;;;;8.36;100.00;99286.06;5058915;28;20711;-68
2023/12/13 02:09:20;;;;;;;2.88;0.90;;;;;;;8.37;100.00;99285.16;5027257;28;20532;-68
2023/12/13 02:11:46;;;;;;;2.00;1.02;;;;;;;8.38;100.00;99279.13;5028618;28;20061;-68
2023/12/13 02:14:12;;;;;;;2.25;1.00;;;;;;;8.39;100.00;99271.38;5033184;28;20540;-68
2023/12/13 02:16:38;;;;;;;4.82;1.25;;;;;;;8.43;100.00;99275.56;5037795;28;20059;-68
2023/12/13 02:19:04;;;;;;;4.22;0.93;;;;;;;8.45;100.00;99272.97;5030897;28;20033;-68
2023/12/13 02:21:32;;;;;;;4.57;1.25;;;;;;;8.46;100.00;99270.34;5025824;28;20102;-68
2023/12/13 02:24:04;;;;;;;4.03;1.38;;;;;;;8.52;100.00;99256.47;5056800;28;20115;-68
2023/12/13 02:26:29;;;;;;;4.40;1.67;;;;;;;8.53;100.00;99255.59;5027357;28;20404;-68
2023/12/13 02:28:55;;;;;;;9.25;1.42;;;;;;;8.55;100.00;99257.25;5024359;28;20033;-68
2023/12/13 02:31:22;;;;;;;4.28;1.10;;;;;;;8.55;100.00;99261.53;5024188;28;20096;-68
2023/12/13 02:33:48;;;;;;;6.10;1.08;;;;;;;8.54;100.00;99255.53;5025754;28;20552;-68
2023/12/13 02:36:13;;;;;;;8.35;1.55;;;;;;;8.56;100.00;99258.94;5025157;28;20041;-68
2023/12/13 02:38:41;;;;;;;4.70;1.02;;;;;;;8.56;100.00;99246.06;5050839;28;20057;-68
2023/12/13 02:41:08;;;;;;;5.22;1.00;;;;;;;8.56;100.00;99265.81;5024874;28;20037;-68
2023/12/13 02:43:33;;;;;;;6.88;1.58;;;;;;;8.49;100.00;99254.81;5022049;28;20211;-68
2023/12/13 02:45:59;;;;;;;5.00;1.13;;;;;;;8.47;100.00;99250.59;5055748;28;20685;-68
2023/12/13 02:48:24;;;;;;;7.03;1.15;;;;;;;8.46;100.00;99248.88;5058055;28;20044;-68
2023/12/13 02:50:53;;;;;;;4.13;1.10;;;;;;;8.43;100.00;99254.13;5023740;28;20034;-68
2023/12/13 02:53:19;;;;;;;2.40;1.00;;;;;;;8.39;100.00;99252.50;5050210;28;20543;-68
2023/12/13 02:55:45;;;;;;;5.40;1.15;;;;;;;8.40;100.00;99247.31;5067222;28;20166;-67
2023/12/13 02:58:11;;;;;;;6.25;1.13;;;;;;;8.44;100.00;99245.50;5020006;28;20509;-68
2023/12/13 03:00:36;;;;;;;3.88;1.45;;;;;;;8.43;100.00;99243.81;5037148;28;20064;-69
2023/12/13 03:03:02;;;;;;;6.10;1.15;;;;;;;8.45;100.00;99239.50;5055556;28;20034;-68
2023/12/13 03:05:27;;;;;;;6.65;1.27;;;;;;;8.45;100.00;99231.78;5024355;28;20455;-68
2023/12/13 03:07:53;;;;;;;8.88;1.52;;;;;;;8.45;100.00;99236.91;5025623;28;20437;-68
2023/12/13 03:10:18;;;;;;;2.45;0.90;;;;;;;8.44;100.00;99236.06;5027794;28;20155;-67
2023/12/13 03:12:44;;;;;;;9.18;1.08;;;;;;;8.43;100.00;99226.63;5058101;28;20228;-67
2023/12/13 03:15:10;;;;;;;4.70;1.00;;;;;;;8.42;100.00;99222.41;5026472;28;20041;-68
2023/12/13 03:17:35;;;;;;;1.88;0.80;;;;;;;8.41;100.00;99223.25;5025366;28;20025;-68
2023/12/13 03:20:00;;;;;;;4.75;1.23;;;;;;;8.37;100.00;99228.50;5055800;28;20029;-68
2023/12/13 03:22:26;;;;;;;3.53;1.13;;;;;;;8.31;100.00;99215.78;5055864;28;20029;-66
2023/12/13 03:24:51;;;;;;;4.00;1.40;;;;;;;8.21;100.00;99222.91;5021923;28;20098;-68
2023/12/13 03:27:17;;;;;;;2.33;0.90;;;;;;;8.11;100.00;99223.97;5057288;28;20037;-69
2023/12/13 03:29:43;;;;;;;5.72;1.20;;;;;;;8.03;100.00;99215.59;5040139;28;20136;-68
2023/12/13 03:32:09;;;;;;;3.70;1.15;;;;;;;8.00;100.00;99220.81;5048758;28;20113;-68
2023/12/13 03:34:34;;;;;;;5.80;1.20;;;;;;;7.98;100.00;99220.84;5024474;28;20072;-68
2023/12/13 03:36:59;;;;;;;7.35;1.05;;;;;;;8.01;100.00;99220.78;5024921;28;20041;-68
2023/12/13 03:39:25;;;;;;;6.07;1.77;;;;;;;8.10;100.00;99224.84;5024451;28;20233;-68
2023/12/13 03:41:50;;;;;;;8.73;1.88;;;;;;;8.16;100.00;99221.31;5040270;28;20144;-68
2023/12/13 03:44:16;;;;;;;5.47;1.50;;;;;;;8.21;100.00;99216.91;5027971;28;20042;-69
2023/12/13 03:46:41;;;;;;;6.90;1.20;;;;;;;8.26;100.00;99223.63;5011292;28;20405;-68
2023/12/13 03:49:07;;;;;;;3.65;1.52;;;;;;;8.28;100.00;99210.72;5043175;28;20171;-68
2023/12/13 03:51:33;;;;;;;6.38;1.27;;;;;;;8.27;100.00;99215.03;5044343;28;20029;-66
2023/12/13 03:53:58;;;;;;;4.00;1.30;;;;;;;8.26;100.00;99202.19;5070861;28;20046;-68
2023/12/13 03:56:24;;;;;;;2.33;1.13;;;;;;;8.21;100.00;99199.75;5059518;28;20037;-67
2023/12/13 03:58:49;;;;;;;3.85;1.00;;;;;;;8.15;100.00;99202.47;5029107;28;20464;-68
2023/12/13 04:01:15;;;;;;;6.45;1.63;;;;;;;8.14;100.00;99195.59;5028075;28;20029;-68
2023/12/13 04:03:40;;;;;;;4.80;1.77;;;;;;;8.13;100.00;99201.63;5056044;28;20061;-68
2023/12/13 04:06:06;;;;;;;4.40;1.33;;;;;;;8.14;100.00;99198.19;5023958;28;20034;-68
2023/12/13 04:08:31;;;;;;;6.55;1.67;;;;;;;8.15;100.00;99192.16;5020713;28;20045;-68
2023/12/13 04:10:57;;;;;;;4.43;0.90;;;;;;;8.18;100.00;99188.66;5028528;28;20080;-68
2023/12/13 04:13:22;;;;;;;4.78;1.35;;;;;;;8.16;100.00;99190.44;5029195;28;20500;-69
2023/12/13 04:15:47;;;;;;;5.07;1.55;;;;;;;8.14;100.00;99184.47;5027706;28;20106;-69
2023/12/13 04:18:13;;;;;;;4.70;1.48;;;;;;;8.10;100.00;99188.81;5041244;28;20185;-68
2023/12/13 04:20:38;;;;;;;5.03;0.98;;;;;;;8.04;100.00;99188.97;5024227;28;20030;-67
2023/12/13 04:23:04;;;;;;;7.00;1.38;;;;;;;7.95;100.00;99189.22;5058178;28;20037;-68
2023/12/13 04:25:29;;;;;;;3.30;1.17;;;;;;;7.81;100.00;99180.94;5026990;28;20065;-68
2023/12/13 04:27:55;;;;;;;9.50;1.40;;;;;;;7.68;100.00;99188.09;5027730;28;20160;-68
2023/12/13 04:30:20;;;;;;;4.80;1.15;;;;;;;7.61;100.00;99181.41;5061588;28;20116;-68
2023/12/13 04:32:46;;;;;;;3.70;1.13;;;;;;;7.51;100.00;99186.75;5024229;28;20057;-68
2023/12/13 04:35:11;;;;;;;3.65;1.00;;;;;;;7.44;100.00;99191.19;5060821;28;20132;-67
2023/12/13 04:37:40;;;;;;;3.85;0.90;;;;;;;7.43;100.00;99177.50;5032464;28;20095;-68
2023/12/13 04:40:06;;;;;;;5.85;1.00;;;;;;;7.39;100.00;99186.13;5025454;28;20505;-68
2023/12/13 04:42:33;;;;;;;7.68;1.60;;;;;;;7.44;100.00;99188.63;5060810;28;20045;-68
2023/12/13 04:45:01;;;;;;;8.10;1.38;;;;;;;7.46;100.00;99184.28;5058680;28;20061;-67
2023/12/13 04:47:26;;;;;;;5.13;1.30;;;;;;;7.42;100.00;99185.22;5026455;28;20037;-68
2023/12/13 04:49:52;;;;;;;7.25;1.20;;;;;;;7.42;100.00;99188.66;5027140;28;20025;-67
2023/12/13 04:52:17;;;;;;;9.73;1.65;;;;;;;7.36;100.00;99187.91;5027949;28;20028;-67
2023/12/13 04:54:43;;;;;;;5.70;1.50;;;;;;;7.37;100.00;99190.47;5027186;28;20042;-68
2023/12/13 04:57:08;;;;;;;9.88;3.10;;;;;;;7.28;100.00;99187.22;5027771;28;20111;-68
2023/12/13 04:59:34;;;;;;;4.78;1.42;;;;;;;7.25;100.00;99192.44;5024933;28;20045;-68
2023/12/13 05:02:02;;;;;;;6.22;1.50;;;;;;;7.31;100.00;99189.75;5026983;28;20029;-68
2023/12/13 05:04:27;;;;;;;7.03;1.75;;;;;;;7.17;100.00;99181.47;5009804;28;20030;-69
2023/12/13 05:06:53;;;;;;;4.80;1.63;;;;;;;7.07;100.00;99174.78;5026526;28;20053;-67
2023/12/13 05:09:18;;;;;;;5.05;1.38;;;;;;;7.01;100.00;99192.88;5023984;28;20193;-68
2023/12/13 05:11:44;;;;;;;10.77;1.70;;;;;;;6.97;100.00;99184.41;5021556;28;20632;-68
2023/12/13 05:14:11;;;;;;;6.70;1.15;;;;;;;6.91;100.00;99179.38;5024348;28;20492;-68
2023/12/13 05:16:36;;;;;;;8.90;1.38;;;;;;;6.91;100.00;99187.91;5035039;28;20057;-68
2023/12/13 05:19:02;;;;;;;7.75;1.98;;;;;;;6.88;100.00;99179.44;5055672;28;20122;-67
2023/12/13 05:21:31;;;;;;;8.15;1.98;;;;;;;6.88;100.00;99182.03;5025728;28;20040;-67
2023/12/13 05:23:56;;;;;;;5.85;2.20;;;;;;;6.79;100.00;99183.00;5031737;28;20038;-68
2023/12/13 05:26:22;;;;;;;10.07;3.80;;;;;;;6.78;100.00;99188.19;5047937;28;20040;-68
2023/12/13 05:28:47;;;;;;;9.00;3.45;;;;;;;6.76;100.00;99179.69;5030266;28;20048;-68
2023/12/13 05:31:23;;;;;;;11.68;3.30;;;;;;;6.73;100.00;99180.56;5058571;28;20038;-67
2023/12/13 05:33:49;;;;;;;17.25;5.43;;;;;;;6.72;100.00;99178.88;5027837;28;20040;-68
2023/12/13 05:36:15;;;;;;;5.82;3.13;;;;;;;6.67;100.00;99179.84;5063910;28;20048;-69
2023/12/13 05:38:41;;;;;;;9.00;2.50;;;;;;;6.65;100.00;99179.84;5022471;28;20050;-67
2023/12/13 05:41:07;;;;;;;8.43;2.47;;;;;;;6.60;100.00;99180.81;5027785;28;20025;-68
2023/12/13 05:43:35;;;;;;;6.32;2.63;;;;;;;6.54;100.00;99174.06;5028333;28;20373;-68
2023/12/13 05:46:00;;;;;;;9.45;2.10;;;;;;;6.52;100.00;99178.41;5026247;28;20030;-67
2023/12/13 05:48:26;;;;;;;9.05;2.17;;;;;;;6.63;100.00;99178.19;5041539;28;20397;-68
2023/12/13 05:50:51;;;;;;;6.97;1.88;;;;;;;6.50;100.00;99174.97;5025636;28;20570;-67
2023/12/13 05:53:17;;;;;;;7.22;2.10;;;;;;;6.45;100.00;99173.38;5026110;28;20559;-68
2023/12/13 05:55:42;;;;;;;4.95;1.95;;;;;;;6.44;100.00;99176.84;5055992;28;20045;-67
2023/12/13 05:58:08;;;;;;;6.47;2.22;;;;;;;6.34;100.00;99174.41;5058837;28;20059;-68
2023/12/13 06:00:34;;;;;;;4.43;1.90;;;;;;;6.26;100.00;99180.53;5004571;28;20033;-68
2023/12/13 06:03:00;;;;;;;3.95;2.13;;;;;;;6.25;100.00;99176.28;5021725;28;20034;-68
2023/12/13 06:05:25;;;;;;;6.50;2.40;;;;;;;6.23;100.00;99172.88;5057313;28;20037;-68
2023/12/13 06:07:51;;;;;;;4.80;2.78;;;;;;;6.22;100.00;99178.91;5012204;28;20029;-68
2023/12/13 06:10:17;;;;;;;7.70;2.00;;;;;;;6.19;100.00;99177.25;5021899;28;20032;-68
2023/12/13 06:12:42;;;;;;;7.15;2.38;;;;;;;6.19;100.00;99177.25;5021448;28;20041;-67
2023/12/13 06:15:08;;;;;;;5.38;2.22;;;;;;;6.19;100.00;99184.94;5020026;28;20026;-68
2023/12/13 06:17:34;;;;;;;6.78;2.35;;;;;;;6.24;100.00;99189.97;5025339;28;20033;-67
2023/12/13 06:20:00;;;;;;;5.47;2.50;;;;;;;6.25;100.00;99194.25;5041673;28;20323;-68
2023/12/13 06:22:26;;;;;;;8.05;2.53;;;;;;;6.27;100.00;99190.78;5023528;28;20483;-68
2023/12/13 06:24:51;;;;;;;5.32;1.90;;;;;;;6.31;100.00;99197.56;5022640;28;20038;-67
2023/12/13 06:27:17;;;;;;;6.90;2.30;;;;;;;6.37;100.00;99190.63;5019284;28;20042;-68
2023/12/13 06:29:42;;;;;;;7.38;2.42;;;;;;;6.41;100.00;99189.72;5040849;28;20091;-67
2023/12/13 06:32:08;;;;;;;8.23;2.22;;;;;;;6.47;100.00;99189.63;5054747;28;20053;-67
2023/12/13 06:34:33;;;;;;;12.50;2.42;;;;;;;6.55;100.00;99185.19;5023148;28;20025;-67
2023/12/13 06:36:58;;;;;;;9.00;2.28;;;;;;;6.61;100.00;99185.09;5007002;28;20047;-68
2023/12/13 06:39:24;;;;;;;6.10;2.10;;;;;;;6.65;100.00;99189.28;5021156;28;20040;-67
2023/12/13 06:41:49;;;;;;;6.13;1.98;;;;;;;6.67;100.00;99193.53;5022615;28;20044;-67
2023/12/13 06:44:16;;;;;;;9.82;2.45;;;;;;;6.71;100.00;99200.28;5040461;28;20046;-67
2023/12/13 06:46:41;;;;;;;10.88;3.10;;;;;;;6.75;100.00;99193.38;5025231;28;20034;-68
2023/12/13 06:49:09;;;;;;;7.38;3.28;;;;;;;6.75;100.00;99191.66;5022138;28;20072;-66
2023/12/13 06:51:36;;;;;;;6.68;2.97;;;;;;;6.73;100.00;99193.38;5022372;28;20042;-68
2023/12/13 06:54:01;;;;;;;11.02;4.07;;;;;;;6.73;100.00;99193.38;5018413;28;20420;-68
2023/12/13 06:56:28;;;;;;;8.43;2.63;;;;;;;6.75;100.00;99199.38;5051264;28;20060;-67
2023/12/13 06:58:53;;;;;;;8.70;2.70;;;;;;;6.73;100.00;99192.56;5024881;28;20045;-67
2023/12/13 07:01:19;;;;;;;7.47;3.40;;;;;;;6.70;100.00;99193.47;5029825;28;20638;-68
2023/12/13 07:03:44;;;;;;;6.07;2.67;;;;;;;6.70;100.00;99196.03;5013904;28;20121;-67
2023/12/13 07:06:10;;;;;;;5.63;2.65;;;;;;;6.66;100.00;99184.13;5024088;28;20037;-67
2023/12/13 07:08:35;;;;;;;3.88;2.08;;;;;;;6.63;100.00;99189.31;5026458;28;20033;-67
2023/12/13 07:11:03;;;;;;;6.50;2.22;;;;;;;6.62;100.00;99185.03;5025550;28;20069;-67
2023/12/13 07:13:30;;;;;;;7.07;2.70;;;;;;;6.66;100.00;99190.97;5059326;28;20041;-67
2023/12/13 07:15:55;;;;;;;7.35;2.58;;;;;;;6.68;100.00;99187.50;5053074;28;20042;-67
2023/12/13 07:18:21;;;;;;;6.55;2.60;;;;;;;6.69;100.00;99196.06;5055966;28;20143;-67
2023/12/13 07:20:47;;;;;;;11.82;4.40;;;;;;;6.73;100.00;99195.97;5025466;28;20554;-67
2023/12/13 07:23:12;;;;;;;10.65;3.15;;;;;;;6.75;100.00;99189.09;5027717;28;20045;-66
2023/12/13 07:25:39;;;;;;;9.90;3.28;;;;;;;6.77;100.00;99186.47;5020473;28;20128;-66
2023/12/13 07:28:04;;;;;;;8.00;2.80;;;;;;;6.74;100.00;99196.81;5019677;28;20396;-67
2023/12/13 07:30:29;;;;;;;5.22;2.47;;;;;;;6.67;100.00;99200.38;5023034;28;20037;-67
2023/12/13 07:32:55;;;;;;;11.68;3.25;;;;;;;6.59;100.00;99197.06;5022782;28;20045;-67
2023/12/13 07:35:20;;;;;;;9.32;3.03;;;;;;;6.50;100.00;99192.94;5025899;28;20041;-67
2023/12/13 07:37:48;;;;;;;8.98;2.97;;;;;;;6.44;100.00;99199.94;5056796;28;20680;-66
2023/12/13 07:40:13;;;;;;;6.40;3.03;;;;;;;6.43;100.00;99201.66;5025273;28;20044;-67
2023/12/13 07:42:41;;;;;;;8.75;3.03;;;;;;;6.47;100.00;99197.31;5038797;28;20045;-67
2023/12/13 07:45:06;;;;;;;6.25;2.55;;;;;;;6.53;100.00;99199.75;5023125;28;20034;-67
2023/12/13 07:47:32;;;;;;;10.45;3.50;;;;;;;6.61;100.00;99208.19;5024354;28;20088;-67
2023/12/13 07:49:59;;;;;;;9.07;3.35;;;;;;;6.69;100.00;99212.31;5053199;28;20679;-68
2023/12/13 07:52:24;;;;;;;9.05;3.08;;;;;;;6.74;100.00;99210.50;5019640;28;20029;-67
2023/12/13 07:54:49;;;;;;;8.02;3.67;;;;;;;6.82;100.00;99207.81;5052144;28;20459;-67
2023/12/13 07:57:15;;;;;;;12.55;3.38;;;;;;;6.88;100.00;99212.84;5004166;28;20030;-68
2023/12/13 07:59:41;;;;;;;7.47;3.65;;;;;;;6.93;100.00;99207.59;5059000;28;20650;-68
2023/12/13 08:02:06;;;;;;;14.70;4.47;;;;;;;6.97;100.00;99209.25;5020947;28;20037;-67
2023/12/13 08:04:32;;;;;;;9.07;3.83;;;;;;;7.00;100.00;99212.56;5004661;28;20064;-67
2023/12/13 08:06:57;;;;;;;10.05;3.40;;;;;;;7.04;100.00;99211.66;5021956;28;20033;-68
2023/12/13 08:09:23;;;;;;;10.20;4.72;;;;;;;7.07;100.00;99213.31;5022995;28;20366;-67
2023/12/13 08:11:49;;;;;;;10.32;3.63;;;;;;;7.11;100.00;99209.81;5057213;28;20640;-68
2023/12/13 08:14:15;;;;;;;13.82;3.63;;;;;;;7.17;100.00;99212.31;5023956;28;20091;-67
2023/12/13 08:16:41;;;;;;;12.15;3.90;;;;;;;7.20;100.00;99214.81;5035357;28;20061;-67
2023/12/13 08:19:07;;;;;;;9.63;3.63;;;;;;;7.22;100.00;99211.34;5020341;28;20049;-68
2023/12/13 08:21:32;;;;;;;6.82;2.78;;;;;;;7.26;100.00;99204.41;5025097;28;20500;-68
2023/12/13 08:23:57;;;;;;;7.35;3.38;;;;;;;7.31;100.00;99205.16;5024413;28;20030;-68
2023/12/13 08:26:25;;;;;;;7.95;2.75;;;;;;;7.34;100.00;99211.09;5025079;28;20036;-67
2023/12/13 08:28:51;;;;;;;7.03;3.05;;;;;;;7.38;100.00;99209.31;5022684;28;20041;-67
2023/12/13 08:31:17;;;;;;;9.60;3.42;;;;;;;7.40;100.00;99202.41;5019307;28;20034;-68
2023/12/13 08:33:43;;;;;;;8.77;3.05;;;;;;;7.43;100.00;99208.34;5021992;28;20045;-67
2023/12/13 08:36:12;;;;;;;6.28;3.42;;;;;;;7.46;100.00;99199.72;5057811;28;20038;-67
2023/12/13 08:38:41;;;;;;;8.57;3.28;;;;;;;7.48;100.00;99205.66;5027475;28;20043;-67
2023/12/13 08:41:07;;;;;;;9.00;3.67;;;;;;;7.50;100.00;99206.50;5060611;28;20017;-67
2023/12/13 08:43:32;;;;;;;8.27;3.38;;;;;;;7.53;100.00;99210.72;5023712;28;20040;-67
2023/12/13 08:45:58;;;;;;;10.07;3.10;;;;;;;7.57;100.00;99209.75;5055827;28;20117;-67
2023/12/13 08:48:24;;;;;;;9.43;3.20;;;;;;;7.58;100.00;99211.47;5038586;28;20457;-67
2023/12/13 08:50:49;;;;;;;10.90;3.63;;;;;;;7.60;100.00;99214.84;5017375;28;20523;-66
2023/12/13 08:53:15;;;;;;;10.82;3.70;;;;;;;7.64;100.00;99214.75;5021320;28;20566;-67
2023/12/13 08:55:40;;;;;;;9.80;3.05;;;;;;;7.67;100.00;99211.28;5054868;28;20056;-67
2023/12/13 08:58:06;;;;;;;5.57;2.80;;;;;;;7.72;100.00;99225.72;5023185;28;20041;-66
2023/12/13 09:00:31;;;;;;;9.63;2.92;;;;;;;7.75;100.00;99224.78;5039997;28;20116;-67
2023/12/13 09:02:56;;;;;;;7.57;3.40;;;;;;;7.81;100.00;99217.81;5028488;28;20033;-66
2023/12/13 09:05:22;;;;;;;9.25;2.75;;;;;;;7.89;100.00;99223.63;5024449;28;20087;-67
2023/12/13 09:07:47;;;;;;;9.68;2.60;;;;;;;7.94;100.00;99215.81;5028712;28;20029;-67
2023/12/13 09:10:13;;;;;;;3.90;2.17;;;;;;;7.98;100.00;99213.13;5061890;28;20408;-67
2023/12/13 09:12:38;;;;;;;8.60;2.40;;;;;;;8.03;100.00;99213.03;5024388;28;20033;-67
2023/12/13 09:15:06;;;;;;;5.90;2.67;;;;;;;8.13;100.00;99218.81;5021760;28;20037;-67
2023/12/13 09:17:33;;;;;;;6.32;2.67;;;;;;;8.24;100.00;99221.97;5024723;28;20033;-67
2023/12/13 09:19:59;;;;;;;8.60;2.55;;;;;;;8.36;100.00;99225.13;5027262;28;20547;-67
2023/12/13 09:22:24;;;;;;;9.82;3.72;;;;;;;8.45;100.00;99221.47;5060705;28;20106;-67
2023/12/13 09:24:50;;;;;;;7.22;3.42;;;;;;;8.54;100.00;99223.81;5025486;28;20034;-67
2023/12/13 09:27:15;;;;;;;8.48;2.70;;;;;;;8.61;100.00;99217.63;5022091;28;20426;-67
2023/12/13 09:29:41;;;;;;;10.55;2.75;;;;;;;8.62;100.00;99223.63;5024726;28;20042;-67
2023/12/13 09:32:06;;;;;;;7.38;2.67;;;;;;;8.63;100.00;99226.16;5024537;28;20109;-67
2023/12/13 09:34:32;;;;;;;7.97;3.28;;;;;;;8.66;100.00;99231.25;5018847;28;20057;-67
2023/12/13 09:36:57;;;;;;;6.32;2.53;;;;;;;8.70;100.00;99229.41;5042222;28;20037;-66
2023/12/13 09:39:22;;;;;;;8.88;3.05;;;;;;;8.77;100.00;99234.38;5030827;28;20041;-66
2023/12/13 09:41:58;;;;;;;8.05;3.13;;;;;;;8.87;100.00;99240.16;5027219;28;20103;-67
2023/12/13 09:44:24;;;;;;;10.05;2.90;;;;;;;9.00;100.00;99239.78;5026929;28;20083;-66
2023/12/13 09:46:55;;;;;;;7.07;2.90;;;;;;;9.13;100.00;99242.88;5024782;28;20065;-67
2023/12/13 09:49:21;;;;;;;8.18;3.03;;;;;;;9.26;100.00;99246.00;5018711;28;20041;-66
2023/12/13 09:51:49;;;;;;;6.88;3.00;;;;;;;9.38;100.00;99243.88;5021907;28;20041;-66
2023/12/13 09:54:14;;;;;;;8.48;3.10;;;;;;;9.43;100.00;99248.94;5027616;28;20064;-67
2023/12/13 09:56:40;;;;;;;8.00;2.67;;;;;;;9.48;100.00;99257.38;5029137;28;20065;-67
2023/12/13 09:59:05;;;;;;;9.45;3.10;;;;;;;9.49;100.00;99246.19;5010104;28;20396;-67
2023/12/13 10:01:30;;;;;;;12.20;3.40;;;;;;;9.41;100.00;99259.28;5058653;28;20060;-67
2023/12/13 10:03:56;;;;;;;9.93;3.33;;;;;;;9.36;100.00;99257.72;5023386;28;20577;-66
2023/12/13 10:06:21;;;;;;;6.05;2.50;;;;;;;9.33;100.00;99258.66;5009435;28;20044;-66
2023/12/13 10:08:54;;;;;;;8.20;2.78;;;;;;;9.32;100.00;99258.69;5025680;28;20033;-66
2023/12/13 10:11:21;;;;;;;9.32;2.85;;;;;;;9.25;100.00;99260.59;5015695;28;20101;-67
2023/12/13 10:13:46;;;;;;;8.02;2.33;;;;;;;9.26;100.00;99262.28;5056549;28;20032;-66
2023/12/13 10:16:13;;;;;;;10.43;3.10;;;;;;;9.33;100.00;99260.38;5025570;28;20033;-67
2023/12/13 10:18:40;;;;;;;6.57;2.25;;;;;;;9.42;100.00;99254.97;5012637;28;20124;-67
2023/12/13 10:21:07;;;;;;;6.55;2.30;;;;;;;9.64;100.00;99263.84;5031035;28;20034;-66
2023/12/13 10:23:33;;;;;;;6.78;2.38;;;;;;;9.90;100.00;99256.19;5030812;28;20064;-66
2023/12/13 10:26:00;;;;;;;8.65;3.08;;;;;;;10.17;100.00;99251.94;5025051;28;20359;-66
2023/12/13 10:28:26;;;;;;;8.20;2.80;;;;;;;10.27;100.00;99252.50;5023883;28;20087;-67
2023/12/13 10:30:51;;;;;;;10.95;3.38;;;;;;;10.26;100.00;99261.97;5025803;28;20049;-66
2023/12/13 10:33:17;;;;;;;6.82;2.53;;;;;;;10.31;100.00;99261.81;5042947;28;20033;-67
2023/12/13 10:35:43;;;;;;;4.97;2.47;;;;;;;10.30;100.00;99252.41;5058054;28;20091;-66
2023/12/13 10:38:14;;;;;;;3.17;1.95;;;;;;;10.41;100.00;99253.75;5027606;28;20045;-66
2023/12/13 10:40:43;;;;;;;7.50;2.42;;;;;;;10.34;100.00;99256.56;5056955;28;20408;-66
2023/12/13 10:43:12;;;;;;;7.22;2.75;;;;;;;10.16;100.00;99253.66;5025721;28;20026;-66
2023/12/13 10:45:43;;;;;;;4.93;2.25;;;;;;;10.01;100.00;99259.28;5026888;28;20378;-66
2023/12/13 10:48:10;;;;;;;6.43;1.95;;;;;;;9.91;100.00;99257.84;5055007;28;20084;-67
2023/12/13 10:50:36;;;;;;;5.60;2.00;;;;;;;9.86;100.00;99254.56;5055781;28;20034;-67
2023/12/13 10:53:02;;;;;;;5.38;2.22;;;;;;;9.92;100.00;99250.97;5041637;28;20542;-66
2023/12/13 10:55:27;;;;;;;4.60;2.10;;;;;;;10.08;100.00;99252.22;5054550;28;20392;-67
2023/12/13 10:57:53;;;;;;;6.95;2.17;;;;;;;10.27;100.00;99255.91;5024117;28;20176;-66
2023/12/13 11:00:20;;;;;;;7.32;2.65;;;;;;;10.43;100.00;99254.53;5004964;28;20042;-66
2023/12/13 11:02:56;;;;;;;4.88;2.30;;;;;;;10.56;100.00;99248.09;5036951;28;20059;-66
2023/12/13 11:05:22;;;;;;;7.68;2.60;;;;;;;10.68;100.00;99249.44;5021357;28;20564;-67
2023/12/13 11:07:48;;;;;;;5.80;2.17;;;;;;;10.78;100.00;99243.88;5023916;28;20133;-67
2023/12/13 11:10:15;;;;;;;7.03;2.22;;;;;;;10.88;100.00;99251.34;5056012;28;20065;-66
2023/12/13 11:12:50;;;;;;;4.45;1.65;;;;;;;10.95;100.00;99251.06;5024283;28;20057;-67
2023/12/13 11:15:17;;;;;;;4.75;1.95;;;;;;;11.00;100.00;99243.16;5021494;28;20396;-67
2023/12/13 11:17:45;;;;;;;2.95;1.50;;;;;;;11.07;100.00;99245.47;5041212;28;20041;-67
2023/12/13 11:20:13;;;;;;;4.53;1.20;;;;;;;11.13;100.00;99250.44;5023932;28;20041;-67
2023/12/13 11:22:45;;;;;;;3.83;1.80;;;;;;;11.16;100.00;99245.16;5017405;28;20056;-67
2023/12/13 11:25:11;;;;;;;5.43;1.55;;;;;;;11.18;99.56;99233.03;5019456;28;20042;-66